sensor_id;sensor_type;location;lat;lon;timestamp;temperature;humidity
26599;DHT22;14240;51.064;16.612;2023-10-09T00:01:40;10.20;99.90
26599;DHT22;14240;51.064;16.612;2023-10-09T00:04:10;10.20;99.90
26599;DHT22;14240;51.064;16.612;2023-10-09T00:06:36;10.20;99.90
26599;DHT22;14240;51.064;16.612;2023-10-09T00:09:06;10.20;99.90
26599;DHT22;14240;51.064;16.612;2023-10-09T00:11:58;10.10;99.90
26599;DHT22;14240;51.064;16.612;2023-10-09T00:14:31;10.10;99.90
26599;DHT22;14240;51.064;16.612;2023-10-09T00:17:04;10.00;99.90
26599;DHT22;14240;51.064;16.612;2023-10-09T00:19:35;10.00;99.90
26599;DHT22;14240;51.064;16.612;2023-10-09T00:22:03;10.00;99.90
26599;DHT22;14240;51.064;16.612;2023-10-09T00:24:46;10.00;99.90
26599;DHT22;14240;51.064;16.612;2023-10-09T00:27:16;9.90;99.90
26599;DHT22;14240;51.064;16.612;2023-10-09T00:29:44;9.90;99.90
26599;DHT22;14240;51.064;16.612;2023-10-09T00:32:14;9.90;99.90
26599;DHT22;14240;51.064;16.612;2023-10-09T00:34:52;9.90;99.90
26599;DHT22;14240;51.064;16.612;2023-10-09T00:37:18;9.80;99.90
26599;DHT22;14240;51.064;16.612;2023-10-09T00:39:52;9.80;99.90
26599;DHT22;14240;51.064;16.612;2023-10-09T00:42:23;9.80;99.90
26599;DHT22;14240;51.064;16.612;2023-10-09T00:44:59;9.80;99.90
26599;DHT22;14240;51.064;16.612;2023-10-09T00:47:34;9.80;99.90
26599;DHT22;14240;51.064;16.612;2023-10-09T00:50:08;9.80;99.90
26599;DHT22;14240;51.064;16.612;2023-10-09T00:52:52;9.70;99.90
26599;DHT22;14240;51.064;16.612;2023-10-09T00:55:27;9.70;99.90
26599;DHT22;14240;51.064;16.612;2023-10-09T00:58:01;9.70;99.90
26599;DHT22;14240;51.064;16.612;2023-10-09T01:00:31;9.70;99.90
26599;DHT22;14240;51.064;16.612;2023-10-09T01:03:15;9.80;99.90
26599;DHT22;14240;51.064;16.612;2023-10-09T01:05:42;9.80;99.90
26599;DHT22;14240;51.064;16.612;2023-10-09T01:08:21;9.80;99.90
26599;DHT22;14240;51.064;16.612;2023-10-09T01:11:00;9.80;99.90
26599;DHT22;14240;51.064;16.612;2023-10-09T01:13:36;9.80;99.90
26599;DHT22;14240;51.064;16.612;2023-10-09T01:16:11;9.80;99.90
26599;DHT22;14240;51.064;16.612;2023-10-09T01:18:44;9.80;99.90
26599;DHT22;14240;51.064;16.612;2023-10-09T01:21:10;9.80;99.90
26599;DHT22;14240;51.064;16.612;2023-10-09T01:23:46;9.80;99.90
26599;DHT22;14240;51.064;16.612;2023-10-09T01:26:39;9.80;99.90
26599;DHT22;14240;51.064;16.612;2023-10-09T01:29:19;9.90;99.90
26599;DHT22;14240;51.064;16.612;2023-10-09T01:31:52;9.80;99.90
26599;DHT22;14240;51.064;16.612;2023-10-09T01:34:25;9.80;99.90
26599;DHT22;14240;51.064;16.612;2023-10-09T01:37:09;9.90;99.90
26599;DHT22;14240;51.064;16.612;2023-10-09T01:39:47;9.90;99.90
26599;DHT22;14240;51.064;16.612;2023-10-09T01:42:14;9.90;99.90
26599;DHT22;14240;51.064;16.612;2023-10-09T01:44:50;9.90;99.90
26599;DHT22;14240;51.064;16.612;2023-10-09T01:47:16;9.90;99.90
26599;DHT22;14240;51.064;16.612;2023-10-09T01:49:44;10.00;99.90
26599;DHT22;14240;51.064;16.612;2023-10-09T01:52:15;10.00;99.90
26599;DHT22;14240;51.064;16.612;2023-10-09T01:54:51;10.00;99.90
26599;DHT22;14240;51.064;16.612;2023-10-09T01:57:18;10.00;99.90
26599;DHT22;14240;51.064;16.612;2023-10-09T01:59:51;9.90;99.90
26599;DHT22;14240;51.064;16.612;2023-10-09T02:02:22;9.90;99.90
26599;DHT22;14240;51.064;16.612;2023-10-09T02:05:02;9.80;99.90
26599;DHT22;14240;51.064;16.612;2023-10-09T02:07:40;9.80;99.90
26599;DHT22;14240;51.064;16.612;2023-10-09T02:10:07;9.90;99.90
26599;DHT22;14240;51.064;16.612;2023-10-09T02:13:04;9.90;99.90
26599;DHT22;14240;51.064;16.612;2023-10-09T02:15:36;9.90;99.90
26599;DHT22;14240;51.064;16.612;2023-10-09T02:18:18;10.00;99.90
26599;DHT22;14240;51.064;16.612;2023-10-09T02:23:34;10.00;99.90
26599;DHT22;14240;51.064;16.612;2023-10-09T02:26:09;10.10;99.90
26599;DHT22;14240;51.064;16.612;2023-10-09T02:28:36;10.10;99.90
26599;DHT22;14240;51.064;16.612;2023-10-09T02:31:10;10.10;99.90
26599;DHT22;14240;51.064;16.612;2023-10-09T02:33:36;10.20;99.90
26599;DHT22;14240;51.064;16.612;2023-10-09T02:36:07;10.20;99.90
26599;DHT22;14240;51.064;16.612;2023-10-09T02:38:33;10.30;99.90
26599;DHT22;14240;51.064;16.612;2023-10-09T02:41:01;10.40;99.90
26599;DHT22;14240;51.064;16.612;2023-10-09T02:43:34;10.50;99.90
26599;DHT22;14240;51.064;16.612;2023-10-09T02:46:11;10.60;99.90
26599;DHT22;14240;51.064;16.612;2023-10-09T02:48:56;10.60;99.90
26599;DHT22;14240;51.064;16.612;2023-10-09T02:51:26;10.60;99.90
26599;DHT22;14240;51.064;16.612;2023-10-09T02:53:56;10.60;99.90
26599;DHT22;14240;51.064;16.612;2023-10-09T02:56:25;10.70;99.90
26599;DHT22;14240;51.064;16.612;2023-10-09T02:59:09;10.70;99.90
26599;DHT22;14240;51.064;16.612;2023-10-09T03:01:37;10.70;99.90
26599;DHT22;14240;51.064;16.612;2023-10-09T03:04:06;10.60;99.90
26599;DHT22;14240;51.064;16.612;2023-10-09T03:06:32;10.60;99.90
26599;DHT22;14240;51.064;16.612;2023-10-09T03:09:03;10.50;99.90
26599;DHT22;14240;51.064;16.612;2023-10-09T03:11:47;10.50;99.90
26599;DHT22;14240;51.064;16.612;2023-10-09T03:14:22;10.50;99.90
26599;DHT22;14240;51.064;16.612;2023-10-09T03:16:52;10.50;99.90
26599;DHT22;14240;51.064;16.612;2023-10-09T03:19:18;10.30;99.90
26599;DHT22;14240;51.064;16.612;2023-10-09T03:21:44;10.40;99.90
26599;DHT22;14240;51.064;16.612;2023-10-09T03:24:10;10.40;99.90
26599;DHT22;14240;51.064;16.612;2023-10-09T03:26:37;10.30;99.90
26599;DHT22;14240;51.064;16.612;2023-10-09T03:29:03;10.30;99.90
26599;DHT22;14240;51.064;16.612;2023-10-09T03:31:36;10.30;99.90
26599;DHT22;14240;51.064;16.612;2023-10-09T03:34:03;10.30;99.90
26599;DHT22;14240;51.064;16.612;2023-10-09T03:36:29;10.30;99.90
26599;DHT22;14240;51.064;16.612;2023-10-09T03:38:57;10.30;99.90
26599;DHT22;14240;51.064;16.612;2023-10-09T03:41:26;10.30;99.90
26599;DHT22;14240;51.064;16.612;2023-10-09T03:43:53;10.30;99.90
26599;DHT22;14240;51.064;16.612;2023-10-09T03:46:22;10.20;99.90
26599;DHT22;14240;51.064;16.612;2023-10-09T03:48:58;10.20;99.90
26599;DHT22;14240;51.064;16.612;2023-10-09T03:51:29;10.20;99.90
26599;DHT22;14240;51.064;16.612;2023-10-09T03:53:55;10.20;99.90
26599;DHT22;14240;51.064;16.612;2023-10-09T03:56:21;10.20;99.90
26599;DHT22;14240;51.064;16.612;2023-10-09T03:58:48;10.20;99.90
26599;DHT22;14240;51.064;16.612;2023-10-09T04:01:19;10.20;99.90
26599;DHT22;14240;51.064;16.612;2023-10-09T04:03:53;10.20;99.90
26599;DHT22;14240;51.064;16.612;2023-10-09T04:06:26;10.20;99.90
26599;DHT22;14240;51.064;16.612;2023-10-09T04:09:01;10.20;99.90
26599;DHT22;14240;51.064;16.612;2023-10-09T04:11:51;10.20;99.90
26599;DHT22;14240;51.064;16.612;2023-10-09T04:14:42;10.20;99.90
26599;DHT22;14240;51.064;16.612;2023-10-09T04:17:23;10.20;99.90
26599;DHT22;14240;51.064;16.612;2023-10-09T04:19:55;10.20;99.90
26599;DHT22;14240;51.064;16.612;2023-10-09T04:22:40;10.20;99.90
26599;DHT22;14240;51.064;16.612;2023-10-09T04:25:26;10.10;99.90
26599;DHT22;14240;51.064;16.612;2023-10-09T04:28:07;10.00;99.90
26599;DHT22;14240;51.064;16.612;2023-10-09T04:30:48;10.00;99.90
26599;DHT22;14240;51.064;16.612;2023-10-09T04:33:21;9.90;99.90
26599;DHT22;14240;51.064;16.612;2023-10-09T04:36:03;9.90;99.90
26599;DHT22;14240;51.064;16.612;2023-10-09T04:39:02;9.80;99.90
26599;DHT22;14240;51.064;16.612;2023-10-09T04:41:28;9.80;99.90
26599;DHT22;14240;51.064;16.612;2023-10-09T04:43:58;9.70;99.90
26599;DHT22;14240;51.064;16.612;2023-10-09T04:46:47;9.70;99.90
26599;DHT22;14240;51.064;16.612;2023-10-09T04:49:40;9.70;99.90
26599;DHT22;14240;51.064;16.612;2023-10-09T04:52:19;9.70;99.90
26599;DHT22;14240;51.064;16.612;2023-10-09T04:54:51;9.70;99.90
26599;DHT22;14240;51.064;16.612;2023-10-09T04:57:36;9.70;99.90
26599;DHT22;14240;51.064;16.612;2023-10-09T05:00:16;9.70;99.90
26599;DHT22;14240;51.064;16.612;2023-10-09T05:02:52;9.70;99.90
26599;DHT22;14240;51.064;16.612;2023-10-09T05:05:32;9.70;99.90
26599;DHT22;14240;51.064;16.612;2023-10-09T05:10:51;9.70;99.90
26599;DHT22;14240;51.064;16.612;2023-10-09T05:13:30;9.80;99.90
26599;DHT22;14240;51.064;16.612;2023-10-09T05:16:06;9.70;99.90
26599;DHT22;14240;51.064;16.612;2023-10-09T05:18:39;9.70;99.90
26599;DHT22;14240;51.064;16.612;2023-10-09T05:21:05;9.70;99.90
26599;DHT22;14240;51.064;16.612;2023-10-09T05:23:51;9.60;99.90
26599;DHT22;14240;51.064;16.612;2023-10-09T05:26:50;9.60;99.90
26599;DHT22;14240;51.064;16.612;2023-10-09T05:29:23;9.50;99.90
26599;DHT22;14240;51.064;16.612;2023-10-09T05:31:49;9.50;99.90
26599;DHT22;14240;51.064;16.612;2023-10-09T05:34:25;9.50;99.90
26599;DHT22;14240;51.064;16.612;2023-10-09T05:37:06;9.50;99.90
26599;DHT22;14240;51.064;16.612;2023-10-09T05:39:54;9.50;99.90
26599;DHT22;14240;51.064;16.612;2023-10-09T05:42:31;9.40;99.90
26599;DHT22;14240;51.064;16.612;2023-10-09T05:45:17;9.40;99.90
26599;DHT22;14240;51.064;16.612;2023-10-09T05:47:47;9.30;99.90
26599;DHT22;14240;51.064;16.612;2023-10-09T05:50:22;9.20;99.90
26599;DHT22;14240;51.064;16.612;2023-10-09T05:52:52;9.20;99.90
26599;DHT22;14240;51.064;16.612;2023-10-09T05:55:19;9.10;99.90
26599;DHT22;14240;51.064;16.612;2023-10-09T05:57:55;9.10;99.90
26599;DHT22;14240;51.064;16.612;2023-10-09T06:00:24;9.10;99.90
26599;DHT22;14240;51.064;16.612;2023-10-09T06:03:08;9.00;99.90
26599;DHT22;14240;51.064;16.612;2023-10-09T06:05:50;9.00;99.90
26599;DHT22;14240;51.064;16.612;2023-10-09T06:08:24;9.00;99.90
26599;DHT22;14240;51.064;16.612;2023-10-09T06:11:11;9.10;99.90
26599;DHT22;14240;51.064;16.612;2023-10-09T06:13:59;9.10;99.90
26599;DHT22;14240;51.064;16.612;2023-10-09T06:16:48;9.10;99.90
26599;DHT22;14240;51.064;16.612;2023-10-09T06:19:26;9.10;99.90
26599;DHT22;14240;51.064;16.612;2023-10-09T06:21:56;9.10;99.90
26599;DHT22;14240;51.064;16.612;2023-10-09T06:24:38;9.00;99.90
26599;DHT22;14240;51.064;16.612;2023-10-09T06:27:04;9.10;99.90
26599;DHT22;14240;51.064;16.612;2023-10-09T06:29:30;9.10;99.90
26599;DHT22;14240;51.064;16.612;2023-10-09T06:32:06;9.20;99.90
26599;DHT22;14240;51.064;16.612;2023-10-09T06:34:56;9.30;99.90
26599;DHT22;14240;51.064;16.612;2023-10-09T06:37:47;9.40;99.90
26599;DHT22;14240;51.064;16.612;2023-10-09T06:43:03;9.30;99.90
26599;DHT22;14240;51.064;16.612;2023-10-09T06:45:47;9.30;99.90
26599;DHT22;14240;51.064;16.612;2023-10-09T06:48:21;9.30;99.90
26599;DHT22;14240;51.064;16.612;2023-10-09T06:51:12;9.20;99.90
26599;DHT22;14240;51.064;16.612;2023-10-09T06:54:01;9.20;99.90
26599;DHT22;14240;51.064;16.612;2023-10-09T06:56:32;9.20;99.90
26599;DHT22;14240;51.064;16.612;2023-10-09T06:59:07;9.20;99.90
26599;DHT22;14240;51.064;16.612;2023-10-09T07:01:48;9.20;99.90
26599;DHT22;14240;51.064;16.612;2023-10-09T07:04:32;9.20;99.90
26599;DHT22;14240;51.064;16.612;2023-10-09T07:06:58;9.20;99.90
26599;DHT22;14240;51.064;16.612;2023-10-09T07:09:25;9.20;99.90
26599;DHT22;14240;51.064;16.612;2023-10-09T07:12:10;9.10;99.90
26599;DHT22;14240;51.064;16.612;2023-10-09T07:14:39;9.10;99.90
26599;DHT22;14240;51.064;16.612;2023-10-09T07:17:06;9.10;99.90
26599;DHT22;14240;51.064;16.612;2023-10-09T07:19:42;9.20;99.90
26599;DHT22;14240;51.064;16.612;2023-10-09T07:22:13;9.20;99.90
26599;DHT22;14240;51.064;16.612;2023-10-09T07:25:02;9.20;99.90
26599;DHT22;14240;51.064;16.612;2023-10-09T07:27:41;9.20;99.90
26599;DHT22;14240;51.064;16.612;2023-10-09T07:30:15;9.20;99.90
26599;DHT22;14240;51.064;16.612;2023-10-09T07:33:07;9.20;99.90
26599;DHT22;14240;51.064;16.612;2023-10-09T07:35:37;9.20;99.90
26599;DHT22;14240;51.064;16.612;2023-10-09T07:38:29;9.20;99.90
26599;DHT22;14240;51.064;16.612;2023-10-09T07:40:56;9.30;99.90
26599;DHT22;14240;51.064;16.612;2023-10-09T07:43:32;9.30;99.90
26599;DHT22;14240;51.064;16.612;2023-10-09T07:46:05;9.30;99.90
26599;DHT22;14240;51.064;16.612;2023-10-09T07:48:49;9.30;99.90
26599;DHT22;14240;51.064;16.612;2023-10-09T07:51:18;9.30;99.90
26599;DHT22;14240;51.064;16.612;2023-10-09T07:53:50;9.20;99.90
26599;DHT22;14240;51.064;16.612;2023-10-09T07:56:25;9.20;99.90
26599;DHT22;14240;51.064;16.612;2023-10-09T07:58:56;9.20;99.90
26599;DHT22;14240;51.064;16.612;2023-10-09T08:01:26;9.30;99.90
26599;DHT22;14240;51.064;16.612;2023-10-09T08:04:01;9.20;99.90
26599;DHT22;14240;51.064;16.612;2023-10-09T08:06:37;9.30;99.90
26599;DHT22;14240;51.064;16.612;2023-10-09T08:09:09;9.30;99.90
26599;DHT22;14240;51.064;16.612;2023-10-09T08:11:43;9.20;99.90
26599;DHT22;14240;51.064;16.612;2023-10-09T08:14:13;9.30;99.90
26599;DHT22;14240;51.064;16.612;2023-10-09T08:16:51;9.30;99.90
26599;DHT22;14240;51.064;16.612;2023-10-09T08:19:37;9.30;99.90
26599;DHT22;14240;51.064;16.612;2023-10-09T08:22:18;9.40;99.90
26599;DHT22;14240;51.064;16.612;2023-10-09T08:24:53;9.40;99.90
26599;DHT22;14240;51.064;16.612;2023-10-09T08:27:25;9.40;99.90
26599;DHT22;14240;51.064;16.612;2023-10-09T08:29:58;9.40;99.90
26599;DHT22;14240;51.064;16.612;2023-10-09T08:32:42;9.40;99.90
26599;DHT22;14240;51.064;16.612;2023-10-09T08:35:10;9.50;99.90
26599;DHT22;14240;51.064;16.612;2023-10-09T08:37:55;9.50;99.90
26599;DHT22;14240;51.064;16.612;2023-10-09T08:40:43;9.50;99.90
26599;DHT22;14240;51.064;16.612;2023-10-09T08:43:18;9.60;99.90
26599;DHT22;14240;51.064;16.612;2023-10-09T08:45:48;9.60;99.90
26599;DHT22;14240;51.064;16.612;2023-10-09T08:48:14;9.50;99.90
26599;DHT22;14240;51.064;16.612;2023-10-09T08:50:47;9.60;99.90
26599;DHT22;14240;51.064;16.612;2023-10-09T08:53:14;9.60;99.90
26599;DHT22;14240;51.064;16.612;2023-10-09T08:55:41;9.60;99.90
26599;DHT22;14240;51.064;16.612;2023-10-09T08:58:08;9.60;99.90
26599;DHT22;14240;51.064;16.612;2023-10-09T09:00:46;9.60;99.90
26599;DHT22;14240;51.064;16.612;2023-10-09T09:03:16;9.70;99.90
26599;DHT22;14240;51.064;16.612;2023-10-09T09:05:48;9.70;99.90
26599;DHT22;14240;51.064;16.612;2023-10-09T09:08:24;9.70;99.90
26599;DHT22;14240;51.064;16.612;2023-10-09T09:11:16;9.70;99.90
26599;DHT22;14240;51.064;16.612;2023-10-09T09:14:03;9.70;99.90
26599;DHT22;14240;51.064;16.612;2023-10-09T09:16:31;9.70;99.90
26599;DHT22;14240;51.064;16.612;2023-10-09T09:19:00;9.70;99.90
26599;DHT22;14240;51.064;16.612;2023-10-09T09:21:29;9.70;99.90
26599;DHT22;14240;51.064;16.612;2023-10-09T09:23:58;9.70;99.90
26599;DHT22;14240;51.064;16.612;2023-10-09T09:26:38;9.70;99.90
26599;DHT22;14240;51.064;16.612;2023-10-09T09:29:14;9.70;99.90
26599;DHT22;14240;51.064;16.612;2023-10-09T09:31:53;9.70;99.90
26599;DHT22;14240;51.064;16.612;2023-10-09T09:34:20;9.80;99.90
26599;DHT22;14240;51.064;16.612;2023-10-09T09:36:53;9.70;99.90
26599;DHT22;14240;51.064;16.612;2023-10-09T09:39:24;9.70;99.90
26599;DHT22;14240;51.064;16.612;2023-10-09T09:42:00;9.70;99.90
26599;DHT22;14240;51.064;16.612;2023-10-09T09:44:39;9.70;99.90
26599;DHT22;14240;51.064;16.612;2023-10-09T09:47:15;9.70;99.90
26599;DHT22;14240;51.064;16.612;2023-10-09T09:49:50;9.80;99.90
26599;DHT22;14240;51.064;16.612;2023-10-09T09:52:18;9.70;99.90
26599;DHT22;14240;51.064;16.612;2023-10-09T09:54:44;9.80;99.90
26599;DHT22;14240;51.064;16.612;2023-10-09T09:57:12;9.80;99.90
26599;DHT22;14240;51.064;16.612;2023-10-09T09:59:52;9.80;99.90
26599;DHT22;14240;51.064;16.612;2023-10-09T10:02:28;9.80;99.90
26599;DHT22;14240;51.064;16.612;2023-10-09T10:04:57;9.80;99.90
26599;DHT22;14240;51.064;16.612;2023-10-09T10:07:25;9.80;99.90
26599;DHT22;14240;51.064;16.612;2023-10-09T10:09:53;9.80;99.90
26599;DHT22;14240;51.064;16.612;2023-10-09T10:15:12;9.80;99.90
26599;DHT22;14240;51.064;16.612;2023-10-09T10:18:07;9.80;99.90
26599;DHT22;14240;51.064;16.612;2023-10-09T10:21:09;9.80;99.90
26599;DHT22;14240;51.064;16.612;2023-10-09T10:23:42;9.90;99.90
26599;DHT22;14240;51.064;16.612;2023-10-09T10:26:22;9.90;99.90
26599;DHT22;14240;51.064;16.612;2023-10-09T10:29:20;9.90;99.90
26599;DHT22;14240;51.064;16.612;2023-10-09T10:31:58;9.90;99.90
26599;DHT22;14240;51.064;16.612;2023-10-09T10:34:27;9.90;99.90
26599;DHT22;14240;51.064;16.612;2023-10-09T10:40:05;9.90;99.90
26599;DHT22;14240;51.064;16.612;2023-10-09T10:42:50;10.00;99.90
26599;DHT22;14240;51.064;16.612;2023-10-09T10:45:38;10.00;99.90
26599;DHT22;14240;51.064;16.612;2023-10-09T10:48:10;10.10;99.90
26599;DHT22;14240;51.064;16.612;2023-10-09T10:50:58;10.10;99.90
26599;DHT22;14240;51.064;16.612;2023-10-09T10:53:24;10.10;99.90
26599;DHT22;14240;51.064;16.612;2023-10-09T10:55:55;10.10;99.90
26599;DHT22;14240;51.064;16.612;2023-10-09T10:58:22;10.20;99.90
26599;DHT22;14240;51.064;16.612;2023-10-09T11:01:00;10.10;99.90
26599;DHT22;14240;51.064;16.612;2023-10-09T11:03:37;10.10;99.90
26599;DHT22;14240;51.064;16.612;2023-10-09T11:06:39;10.10;99.90
26599;DHT22;14240;51.064;16.612;2023-10-09T11:09:08;10.10;99.90
26599;DHT22;14240;51.064;16.612;2023-10-09T11:11:36;10.10;99.90
26599;DHT22;14240;51.064;16.612;2023-10-09T11:14:11;10.10;99.90
26599;DHT22;14240;51.064;16.612;2023-10-09T11:16:40;10.10;99.90
26599;DHT22;14240;51.064;16.612;2023-10-09T11:19:14;10.20;99.90
26599;DHT22;14240;51.064;16.612;2023-10-09T11:21:52;10.10;99.90
26599;DHT22;14240;51.064;16.612;2023-10-09T11:24:39;10.10;99.90
26599;DHT22;14240;51.064;16.612;2023-10-09T11:27:06;10.20;99.90
26599;DHT22;14240;51.064;16.612;2023-10-09T11:29:33;10.20;99.90
26599;DHT22;14240;51.064;16.612;2023-10-09T11:32:15;10.20;99.90
26599;DHT22;14240;51.064;16.612;2023-10-09T11:34:48;10.30;99.90
26599;DHT22;14240;51.064;16.612;2023-10-09T11:37:23;10.30;99.90
26599;DHT22;14240;51.064;16.612;2023-10-09T11:39:55;10.30;99.90
26599;DHT22;14240;51.064;16.612;2023-10-09T11:42:23;10.40;99.90
26599;DHT22;14240;51.064;16.612;2023-10-09T11:45:28;10.30;99.90
26599;DHT22;14240;51.064;16.612;2023-10-09T11:48:16;10.30;99.90
26599;DHT22;14240;51.064;16.612;2023-10-09T11:50:59;10.30;99.90
26599;DHT22;14240;51.064;16.612;2023-10-09T11:53:28;10.40;99.90
26599;DHT22;14240;51.064;16.612;2023-10-09T11:55:54;10.40;99.90
26599;DHT22;14240;51.064;16.612;2023-10-09T11:58:20;10.40;99.90
26599;DHT22;14240;51.064;16.612;2023-10-09T12:00:57;10.40;99.90
26599;DHT22;14240;51.064;16.612;2023-10-09T12:03:29;10.40;99.90
26599;DHT22;14240;51.064;16.612;2023-10-09T12:05:56;10.40;99.90
26599;DHT22;14240;51.064;16.612;2023-10-09T12:08:24;10.40;99.90
26599;DHT22;14240;51.064;16.612;2023-10-09T12:10:53;10.40;99.90
26599;DHT22;14240;51.064;16.612;2023-10-09T12:13:23;10.50;99.90
26599;DHT22;14240;51.064;16.612;2023-10-09T12:15:52;10.50;99.90
26599;DHT22;14240;51.064;16.612;2023-10-09T12:18:20;10.50;99.90
26599;DHT22;14240;51.064;16.612;2023-10-09T12:20:46;10.60;99.90
26599;DHT22;14240;51.064;16.612;2023-10-09T12:23:20;10.60;99.90
26599;DHT22;14240;51.064;16.612;2023-10-09T12:25:51;10.60;99.90
26599;DHT22;14240;51.064;16.612;2023-10-09T12:28:17;10.70;99.90
26599;DHT22;14240;51.064;16.612;2023-10-09T12:30:47;10.70;99.90
26599;DHT22;14240;51.064;16.612;2023-10-09T12:33:16;10.70;99.90
26599;DHT22;14240;51.064;16.612;2023-10-09T12:35:42;10.80;99.90
26599;DHT22;14240;51.064;16.612;2023-10-09T12:38:11;10.70;99.90
26599;DHT22;14240;51.064;16.612;2023-10-09T12:40:38;10.70;99.90
26599;DHT22;14240;51.064;16.612;2023-10-09T12:43:06;10.80;99.90
26599;DHT22;14240;51.064;16.612;2023-10-09T12:45:41;10.70;99.90
26599;DHT22;14240;51.064;16.612;2023-10-09T12:48:07;10.80;99.90
26599;DHT22;14240;51.064;16.612;2023-10-09T12:50:36;10.80;99.90
26599;DHT22;14240;51.064;16.612;2023-10-09T12:53:08;10.80;99.90
26599;DHT22;14240;51.064;16.612;2023-10-09T12:55:40;10.90;99.90
26599;DHT22;14240;51.064;16.612;2023-10-09T12:58:10;10.90;99.90
26599;DHT22;14240;51.064;16.612;2023-10-09T13:00:40;10.90;99.90
26599;DHT22;14240;51.064;16.612;2023-10-09T13:03:13;10.90;99.90
26599;DHT22;14240;51.064;16.612;2023-10-09T13:05:45;11.00;99.90
26599;DHT22;14240;51.064;16.612;2023-10-09T13:08:27;11.00;99.90
26599;DHT22;14240;51.064;16.612;2023-10-09T13:10:57;11.00;99.90
26599;DHT22;14240;51.064;16.612;2023-10-09T13:13:29;11.00;99.90
26599;DHT22;14240;51.064;16.612;2023-10-09T13:16:16;11.10;99.90
26599;DHT22;14240;51.064;16.612;2023-10-09T13:19:00;11.10;99.90
26599;DHT22;14240;51.064;16.612;2023-10-09T13:21:35;11.10;99.90
26599;DHT22;14240;51.064;16.612;2023-10-09T13:24:05;11.10;99.90
26599;DHT22;14240;51.064;16.612;2023-10-09T13:26:30;11.10;99.90
26599;DHT22;14240;51.064;16.612;2023-10-09T13:28:58;11.10;99.90
26599;DHT22;14240;51.064;16.612;2023-10-09T13:31:25;11.10;99.90
26599;DHT22;14240;51.064;16.612;2023-10-09T13:33:55;11.20;99.90
26599;DHT22;14240;51.064;16.612;2023-10-09T13:36:22;11.20;99.90
26599;DHT22;14240;51.064;16.612;2023-10-09T13:39:07;11.20;99.90
26599;DHT22;14240;51.064;16.612;2023-10-09T13:41:58;11.20;99.90
26599;DHT22;14240;51.064;16.612;2023-10-09T13:44:29;11.20;99.90
26599;DHT22;14240;51.064;16.612;2023-10-09T13:46:55;11.20;99.90
26599;DHT22;14240;51.064;16.612;2023-10-09T13:49:21;11.20;99.90
26599;DHT22;14240;51.064;16.612;2023-10-09T13:51:56;11.20;99.90
26599;DHT22;14240;51.064;16.612;2023-10-09T13:54:26;11.30;99.90
26599;DHT22;14240;51.064;16.612;2023-10-09T13:57:01;11.20;99.90
26599;DHT22;14240;51.064;16.612;2023-10-09T13:59:30;11.20;99.90
26599;DHT22;14240;51.064;16.612;2023-10-09T14:01:56;11.20;99.90
26599;DHT22;14240;51.064;16.612;2023-10-09T14:04:25;11.30;99.90
26599;DHT22;14240;51.064;16.612;2023-10-09T14:06:51;11.30;99.90
26599;DHT22;14240;51.064;16.612;2023-10-09T14:09:25;11.30;99.90
26599;DHT22;14240;51.064;16.612;2023-10-09T14:11:58;11.30;99.90
26599;DHT22;14240;51.064;16.612;2023-10-09T14:17:06;11.30;99.90
26599;DHT22;14240;51.064;16.612;2023-10-09T14:19:42;11.30;99.90
26599;DHT22;14240;51.064;16.612;2023-10-09T14:22:18;11.30;99.90
26599;DHT22;14240;51.064;16.612;2023-10-09T14:24:45;11.30;99.90
26599;DHT22;14240;51.064;16.612;2023-10-09T14:27:14;11.30;99.90
26599;DHT22;14240;51.064;16.612;2023-10-09T14:29:53;11.40;99.90
26599;DHT22;14240;51.064;16.612;2023-10-09T14:32:25;11.40;99.90
26599;DHT22;14240;51.064;16.612;2023-10-09T14:35:09;11.40;99.90
26599;DHT22;14240;51.064;16.612;2023-10-09T14:37:40;11.40;99.90
26599;DHT22;14240;51.064;16.612;2023-10-09T14:40:07;11.40;99.90
26599;DHT22;14240;51.064;16.612;2023-10-09T14:42:39;11.40;99.90
26599;DHT22;14240;51.064;16.612;2023-10-09T14:45:10;11.30;99.90
26599;DHT22;14240;51.064;16.612;2023-10-09T14:47:44;11.40;99.90
26599;DHT22;14240;51.064;16.612;2023-10-09T14:50:12;11.30;99.90
26599;DHT22;14240;51.064;16.612;2023-10-09T14:52:39;11.30;99.90
26599;DHT22;14240;51.064;16.612;2023-10-09T14:55:05;11.20;99.90
26599;DHT22;14240;51.064;16.612;2023-10-09T14:57:31;11.20;99.90
26599;DHT22;14240;51.064;16.612;2023-10-09T15:00:00;11.20;99.90
26599;DHT22;14240;51.064;16.612;2023-10-09T15:02:26;11.10;99.90
26599;DHT22;14240;51.064;16.612;2023-10-09T15:04:52;11.20;99.90
26599;DHT22;14240;51.064;16.612;2023-10-09T15:07:18;11.20;99.90
26599;DHT22;14240;51.064;16.612;2023-10-09T15:09:46;11.20;99.90
26599;DHT22;14240;51.064;16.612;2023-10-09T15:12:12;11.20;99.90
26599;DHT22;14240;51.064;16.612;2023-10-09T15:14:38;11.10;99.90
26599;DHT22;14240;51.064;16.612;2023-10-09T15:17:05;11.10;99.90
26599;DHT22;14240;51.064;16.612;2023-10-09T15:19:32;11.00;99.90
26599;DHT22;14240;51.064;16.612;2023-10-09T15:21:58;11.00;99.90
26599;DHT22;14240;51.064;16.612;2023-10-09T15:24:25;11.00;99.90
26599;DHT22;14240;51.064;16.612;2023-10-09T15:26:53;10.90;99.90
26599;DHT22;14240;51.064;16.612;2023-10-09T15:29:23;10.90;99.90
26599;DHT22;14240;51.064;16.612;2023-10-09T15:31:57;10.90;99.90
26599;DHT22;14240;51.064;16.612;2023-10-09T15:34:30;10.80;99.90
26599;DHT22;14240;51.064;16.612;2023-10-09T15:36:56;10.80;99.90
26599;DHT22;14240;51.064;16.612;2023-10-09T15:39:22;10.80;99.90
26599;DHT22;14240;51.064;16.612;2023-10-09T15:41:49;10.70;99.90
26599;DHT22;14240;51.064;16.612;2023-10-09T15:44:16;10.80;99.90
26599;DHT22;14240;51.064;16.612;2023-10-09T15:46:43;10.70;99.90
26599;DHT22;14240;51.064;16.612;2023-10-09T15:49:11;10.80;99.90
26599;DHT22;14240;51.064;16.612;2023-10-09T15:51:39;10.80;99.90
26599;DHT22;14240;51.064;16.612;2023-10-09T15:54:05;10.80;99.90
26599;DHT22;14240;51.064;16.612;2023-10-09T15:56:31;10.80;99.90
26599;DHT22;14240;51.064;16.612;2023-10-09T15:58:57;10.80;99.90
26599;DHT22;14240;51.064;16.612;2023-10-09T16:01:23;10.80;99.90
26599;DHT22;14240;51.064;16.612;2023-10-09T16:03:49;10.70;99.90
26599;DHT22;14240;51.064;16.612;2023-10-09T16:06:17;10.70;99.90
26599;DHT22;14240;51.064;16.612;2023-10-09T16:08:46;10.70;99.90
26599;DHT22;14240;51.064;16.612;2023-10-09T16:11:16;10.70;99.90
26599;DHT22;14240;51.064;16.612;2023-10-09T16:13:42;10.60;99.90
26599;DHT22;14240;51.064;16.612;2023-10-09T16:16:08;10.60;99.90
26599;DHT22;14240;51.064;16.612;2023-10-09T16:18:37;10.60;99.90
26599;DHT22;14240;51.064;16.612;2023-10-09T16:21:04;10.60;99.90